Time;durP1;ratioP1;P1;durP2;ratioP2;P2;SDS_P1;SDS_P2;PMS_P1;PMS_P2;Temp;Humidity;BMP_temperature;BMP_pressure;BME280_temperature;BME280_humidity;BME280_pressure;Samples;Min_cycle;Max_cycle;Signal;HPM_P1;HPM_P2
2022/03/06 00:00:22;;;;;;;7.95;4.63;;;;;;;;;;5025005;28;20053;-59
2022/03/06 00:02:48;;;;;;;7.45;4.70;;;;;;;;;;5030180;28;20026;-59
2022/03/06 00:05:13;;;;;;;8.57;4.50;;;;;;;;;;5027234;28;20052;-58
2022/03/06 00:07:39;;;;;;;6.65;4.75;;;;;;;;;;5030144;28;20034;-60
2022/03/06 00:10:05;;;;;;;8.15;4.38;;;;;;;;;;5029651;28;20667;-58
2022/03/06 00:12:30;;;;;;;7.97;4.10;;;;;;;;;;5029966;28;20084;-59
2022/03/06 00:14:56;;;;;;;8.02;4.78;;;;;;;;;;5029056;28;20053;-58
2022/03/06 00:17:21;;;;;;;8.93;4.60;;;;;;;;;;5032015;28;20120;-58
2022/03/06 00:19:46;;;;;;;8.93;4.20;;;;;;;;;;5028709;28;20037;-60
2022/03/06 00:22:12;;;;;;;10.85;4.72;;;;;;;;;;5030955;28;20022;-58
2022/03/06 00:24:37;;;;;;;7.30;4.43;;;;;;;;;;5028884;28;20060;-59
2022/03/06 00:27:03;;;;;;;8.63;4.57;;;;;;;;;;5028433;28;20037;-59
2022/03/06 00:29:29;;;;;;;8.05;4.32;;;;;;;;;;5028796;28;20025;-60
2022/03/06 00:31:54;;;;;;;8.05;4.43;;;;;;;;;;5031303;28;20042;-59
2022/03/06 00:34:19;;;;;;;8.07;4.50;;;;;;;;;;5025560;28;20033;-56
2022/03/06 00:36:45;;;;;;;8.50;4.30;;;;;;;;;;5027085;28;20127;-57
2022/03/06 00:39:10;;;;;;;8.32;3.90;;;;;;;;;;5026328;28;20276;-56
2022/03/06 00:41:37;;;;;;;8.75;4.10;;;;;;;;;;5027229;28;20401;-59
2022/03/06 00:44:03;;;;;;;7.32;4.22;;;;;;;;;;5029675;28;20018;-60
2022/03/06 00:46:28;;;;;;;8.18;4.30;;;;;;;;;;5028129;28;20353;-60
2022/03/06 00:48:54;;;;;;;9.18;4.68;;;;;;;;;;5027808;28;20029;-61
2022/03/06 00:51:19;;;;;;;7.90;3.97;;;;;;;;;;5029304;28;20029;-58
2022/03/06 00:53:45;;;;;;;8.13;4.43;;;;;;;;;;5026432;28;20057;-61
2022/03/06 00:56:10;;;;;;;9.88;4.38;;;;;;;;;;5030514;28;20548;-60
2022/03/06 00:58:37;;;;;;;9.02;4.57;;;;;;;;;;5025297;28;20021;-59
2022/03/06 01:01:04;;;;;;;8.20;4.50;;;;;;;;;;5026960;28;20025;-60
2022/03/06 01:03:29;;;;;;;8.02;4.78;;;;;;;;;;5022427;28;20556;-60
2022/03/06 01:05:54;;;;;;;9.73;4.53;;;;;;;;;;5023919;28;20161;-58
2022/03/06 01:08:20;;;;;;;11.27;4.50;;;;;;;;;;5026061;28;20555;-60
2022/03/06 01:10:47;;;;;;;8.43;4.30;;;;;;;;;;5024111;28;20029;-61
2022/03/06 01:13:16;;;;;;;8.40;4.40;;;;;;;;;;5023133;28;20022;-58
2022/03/06 01:15:42;;;;;;;8.82;4.78;;;;;;;;;;5026425;28;20033;-60
2022/03/06 01:18:08;;;;;;;10.00;4.25;;;;;;;;;;5025355;28;20033;-59
2022/03/06 01:20:38;;;;;;;8.68;4.20;;;;;;;;;;5026264;28;20079;-60
2022/03/06 01:23:04;;;;;;;8.95;4.38;;;;;;;;;;5023570;28;20036;-59
2022/03/06 01:25:30;;;;;;;8.30;4.45;;;;;;;;;;5058304;28;20029;-58
2022/03/06 01:27:55;;;;;;;7.72;4.50;;;;;;;;;;5027012;28;20033;-59
2022/03/06 01:30:22;;;;;;;10.10;4.38;;;;;;;;;;5025706;28;20049;-60
2022/03/06 01:32:52;;;;;;;8.15;4.30;;;;;;;;;;5025432;28;20037;-60
2022/03/06 01:35:19;;;;;;;6.80;4.10;;;;;;;;;;5026722;28;20038;-57
2022/03/06 01:37:45;;;;;;;8.98;4.63;;;;;;;;;;5026326;28;20033;-59
2022/03/06 01:40:12;;;;;;;9.63;4.38;;;;;;;;;;5024531;28;20037;-59
2022/03/06 01:42:43;;;;;;;8.82;4.43;;;;;;;;;;5027120;28;20025;-58
2022/03/06 01:45:10;;;;;;;8.20;4.00;;;;;;;;;;5022396;28;20033;-59
2022/03/06 01:47:40;;;;;;;9.38;4.18;;;;;;;;;;5020895;28;20035;-61
2022/03/06 01:50:08;;;;;;;10.60;4.22;;;;;;;;;;5024713;28;20029;-60
2022/03/06 01:52:33;;;;;;;6.78;3.92;;;;;;;;;;5023191;28;20025;-59
2022/03/06 01:54:58;;;;;;;7.05;3.70;;;;;;;;;;5022736;28;20029;-58
2022/03/06 01:57:25;;;;;;;7.00;3.38;;;;;;;;;;5027136;28;20509;-57
2022/03/06 01:59:50;;;;;;;6.80;4.28;;;;;;;;;;5024211;28;20485;-56
2022/03/06 02:02:16;;;;;;;7.38;4.05;;;;;;;;;;5025678;28;20028;-56
2022/03/06 02:04:41;;;;;;;5.75;3.72;;;;;;;;;;5024581;28;20083;-59
2022/03/06 02:07:07;;;;;;;6.75;3.92;;;;;;;;;;5025117;28;20444;-59
2022/03/06 02:09:32;;;;;;;11.20;4.03;;;;;;;;;;5024533;28;20033;-59
2022/03/06 02:14:57;;;;;;;6.25;3.67;;;;;;;;;;5015918;28;20041;-59
2022/03/06 02:17:23;;;;;;;7.57;4.20;;;;;;;;;;5026682;28;20446;-59
2022/03/06 02:19:52;;;;;;;6.97;3.63;;;;;;;;;;5025767;28;20685;-57
2022/03/06 02:22:18;;;;;;;6.82;3.47;;;;;;;;;;5027142;28;20083;-59
2022/03/06 02:24:43;;;;;;;7.80;3.95;;;;;;;;;;5024862;28;20052;-59
2022/03/06 02:27:09;;;;;;;6.57;3.72;;;;;;;;;;5026129;28;20053;-59
2022/03/06 02:29:34;;;;;;;6.03;3.53;;;;;;;;;;5026711;28;20059;-56
2022/03/06 02:32:00;;;;;;;8.73;3.55;;;;;;;;;;5024460;28;20029;-58
2022/03/06 02:34:28;;;;;;;6.32;3.35;;;;;;;;;;5026214;28;20084;-60
2022/03/06 02:36:53;;;;;;;4.90;3.35;;;;;;;;;;5026666;28;20037;-58
2022/03/06 02:39:24;;;;;;;6.60;3.50;;;;;;;;;;5025417;28;20139;-58
2022/03/06 02:41:49;;;;;;;6.72;3.45;;;;;;;;;;5024907;28;20226;-59
2022/03/06 02:44:15;;;;;;;6.43;3.30;;;;;;;;;;5027073;28;20108;-58
2022/03/06 02:46:40;;;;;;;5.18;3.40;;;;;;;;;;5028952;28;20025;-58
2022/03/06 02:49:06;;;;;;;6.50;3.50;;;;;;;;;;5025104;28;20029;-59
2022/03/06 02:51:31;;;;;;;5.57;3.28;;;;;;;;;;5027033;28;20036;-58
2022/03/06 02:53:56;;;;;;;6.97;3.13;;;;;;;;;;5021761;28;20454;-57
2022/03/06 02:56:22;;;;;;;5.50;3.10;;;;;;;;;;5027057;28;20642;-57
2022/03/06 02:58:47;;;;;;;7.57;3.70;;;;;;;;;;5024880;28;20359;-57
2022/03/06 03:01:12;;;;;;;8.82;3.63;;;;;;;;;;5025311;28;20090;-58
2022/03/06 03:03:39;;;;;;;9.38;3.95;;;;;;;;;;5024295;28;20032;-59
2022/03/06 03:06:07;;;;;;;6.03;3.42;;;;;;;;;;5024088;28;20044;-57
2022/03/06 03:08:32;;;;;;;7.03;3.58;;;;;;;;;;5026401;28;20053;-57
2022/03/06 03:10:58;;;;;;;7.30;3.50;;;;;;;;;;5027664;28;20045;-59
2022/03/06 03:13:23;;;;;;;5.97;3.45;;;;;;;;;;5023911;28;20064;-58
2022/03/06 03:15:48;;;;;;;6.97;3.65;;;;;;;;;;5024605;28;20030;-57
2022/03/06 03:18:14;;;;;;;5.93;3.20;;;;;;;;;;5025529;28;20513;-57
2022/03/06 03:20:39;;;;;;;5.43;2.80;;;;;;;;;;5027730;28;20068;-58
2022/03/06 03:23:04;;;;;;;5.55;3.05;;;;;;;;;;5026631;28;20029;-58
2022/03/06 03:25:30;;;;;;;6.68;3.17;;;;;;;;;;5030803;28;20028;-59
2022/03/06 03:27:55;;;;;;;4.55;2.80;;;;;;;;;;5029967;28;20083;-59
2022/03/06 03:30:21;;;;;;;5.05;3.08;;;;;;;;;;5031206;28;20032;-58
2022/03/06 03:32:46;;;;;;;5.28;2.80;;;;;;;;;;5030741;28;20026;-59
2022/03/06 03:35:11;;;;;;;5.60;3.20;;;;;;;;;;5031234;28;20079;-59
2022/03/06 03:37:37;;;;;;;4.28;2.92;;;;;;;;;;5031643;28;20427;-60
2022/03/06 03:40:05;;;;;;;5.53;3.15;;;;;;;;;;5033114;28;20030;-56
2022/03/06 03:42:30;;;;;;;5.25;3.05;;;;;;;;;;5023873;28;20413;-61
2022/03/06 03:44:56;;;;;;;6.03;3.00;;;;;;;;;;5031654;28;20018;-61
2022/03/06 03:47:21;;;;;;;5.45;3.08;;;;;;;;;;5025289;28;20025;-60
2022/03/06 03:49:47;;;;;;;5.55;2.80;;;;;;;;;;5030836;28;20026;-60
2022/03/06 03:52:12;;;;;;;7.05;2.95;;;;;;;;;;5028641;28;20505;-60
2022/03/06 03:54:37;;;;;;;6.10;3.05;;;;;;;;;;5029036;28;20025;-59
2022/03/06 03:57:04;;;;;;;5.40;2.75;;;;;;;;;;5030675;28;20179;-58
2022/03/06 03:59:30;;;;;;;4.25;2.78;;;;;;;;;;5029605;28;20095;-57
2022/03/06 04:01:55;;;;;;;5.00;2.92;;;;;;;;;;5027049;28;20041;-54
2022/03/06 04:04:20;;;;;;;4.68;2.70;;;;;;;;;;5030053;28;20037;-59
2022/03/06 04:06:46;;;;;;;6.07;2.70;;;;;;;;;;5030512;28;20037;-59
2022/03/06 04:09:11;;;;;;;4.32;2.55;;;;;;;;;;5029699;28;20481;-59
2022/03/06 04:11:37;;;;;;;3.90;2.58;;;;;;;;;;5027076;28;20060;-59
2022/03/06 04:14:02;;;;;;;3.45;2.20;;;;;;;;;;5028703;28;20356;-58
2022/03/06 04:16:28;;;;;;;4.68;2.90;;;;;;;;;;5029551;28;20087;-60
2022/03/06 04:18:53;;;;;;;4.30;2.70;;;;;;;;;;5028839;28;20029;-59
2022/03/06 04:21:18;;;;;;;4.05;2.50;;;;;;;;;;5029032;28;20021;-60
2022/03/06 04:23:45;;;;;;;4.72;2.90;;;;;;;;;;5027036;28;20361;-59
2022/03/06 04:26:11;;;;;;;4.40;2.63;;;;;;;;;;5029175;28;20039;-60
2022/03/06 04:28:36;;;;;;;5.35;2.95;;;;;;;;;;5028760;28;20029;-59
2022/03/06 04:31:01;;;;;;;3.80;2.60;;;;;;;;;;5030874;28;20033;-57
2022/03/06 04:33:27;;;;;;;6.13;2.90;;;;;;;;;;5029589;28;20045;-58
2022/03/06 04:35:52;;;;;;;3.97;2.85;;;;;;;;;;5029943;28;20030;-56
2022/03/06 04:38:18;;;;;;;4.70;2.97;;;;;;;;;;5029273;28;20033;-58
2022/03/06 04:40:43;;;;;;;4.10;2.80;;;;;;;;;;5029166;28;20029;-59
2022/03/06 04:43:08;;;;;;;4.20;2.67;;;;;;;;;;5026231;28;20470;-59
2022/03/06 04:45:34;;;;;;;4.72;2.63;;;;;;;;;;5028209;28;20044;-58
2022/03/06 04:47:59;;;;;;;3.92;2.42;;;;;;;;;;5030240;28;20033;-59
2022/03/06 04:50:24;;;;;;;5.78;2.83;;;;;;;;;;5028828;28;20025;-57
2022/03/06 04:52:50;;;;;;;4.30;3.08;;;;;;;;;;5025018;28;20071;-57
2022/03/06 04:55:15;;;;;;;4.65;2.92;;;;;;;;;;5030393;28;20057;-56
2022/03/06 04:57:41;;;;;;;6.55;2.53;;;;;;;;;;5025670;28;20029;-57
2022/03/06 05:00:07;;;;;;;6.45;2.50;;;;;;;;;;5027597;28;20029;-55
2022/03/06 05:02:32;;;;;;;5.35;2.80;;;;;;;;;;5028226;28;20025;-58
2022/03/06 05:04:58;;;;;;;4.00;2.78;;;;;;;;;;5029340;28;20055;-54
2022/03/06 05:07:23;;;;;;;4.13;2.70;;;;;;;;;;5029156;28;20025;-59
2022/03/06 05:09:49;;;;;;;4.80;2.65;;;;;;;;;;5029580;28;20033;-59
2022/03/06 05:12:14;;;;;;;4.75;3.15;;;;;;;;;;5027772;28;20037;-58
2022/03/06 05:14:39;;;;;;;6.40;3.20;;;;;;;;;;5030886;28;20025;-58
2022/03/06 05:17:05;;;;;;;4.65;2.85;;;;;;;;;;5021021;28;20525;-58
2022/03/06 05:19:30;;;;;;;5.75;2.83;;;;;;;;;;5028882;28;20030;-58
2022/03/06 05:21:55;;;;;;;4.15;2.70;;;;;;;;;;5026510;28;20470;-55
2022/03/06 05:24:21;;;;;;;4.00;2.63;;;;;;;;;;5027420;28;20048;-58
2022/03/06 05:26:46;;;;;;;4.72;2.42;;;;;;;;;;5027005;28;20028;-59
2022/03/06 05:29:12;;;;;;;5.20;2.65;;;;;;;;;;5028357;28;20151;-59
2022/03/06 05:31:37;;;;;;;3.70;2.47;;;;;;;;;;5028734;28;20017;-53
2022/03/06 05:34:03;;;;;;;4.45;2.45;;;;;;;;;;5030105;28;20041;-57
2022/03/06 05:36:28;;;;;;;4.22;2.45;;;;;;;;;;5028203;28;20492;-58
2022/03/06 05:38:53;;;;;;;3.78;2.30;;;;;;;;;;5028504;28;20492;-57
2022/03/06 05:41:19;;;;;;;3.67;2.67;;;;;;;;;;5025031;28;20067;-60
2022/03/06 05:43:44;;;;;;;4.25;2.90;;;;;;;;;;5030446;28;20477;-59
2022/03/06 05:46:10;;;;;;;3.25;2.30;;;;;;;;;;5027958;28;20108;-59
2022/03/06 05:48:35;;;;;;;3.58;2.35;;;;;;;;;;5027604;28;20395;-59
2022/03/06 05:51:02;;;;;;;3.67;2.70;;;;;;;;;;5024027;28;20064;-60
2022/03/06 05:53:27;;;;;;;3.70;2.25;;;;;;;;;;5027212;28;20028;-57
2022/03/06 05:55:52;;;;;;;3.20;2.53;;;;;;;;;;5025581;28;20029;-60
2022/03/06 05:58:18;;;;;;;4.00;2.42;;;;;;;;;;5025640;28;20416;-57
2022/03/06 06:00:43;;;;;;;3.72;2.50;;;;;;;;;;5028013;28;20029;-58
2022/03/06 06:03:08;;;;;;;3.67;2.58;;;;;;;;;;5027644;28;20033;-58
2022/03/06 06:05:34;;;;;;;4.22;2.70;;;;;;;;;;5028087;28;20068;-57
2022/03/06 06:08:00;;;;;;;5.28;2.75;;;;;;;;;;5028601;28;20473;-54
2022/03/06 06:10:25;;;;;;;3.65;2.40;;;;;;;;;;5028425;28;20021;-56
2022/03/06 06:12:51;;;;;;;5.22;2.55;;;;;;;;;;5028159;28;20060;-49
2022/03/06 06:15:16;;;;;;;3.92;2.38;;;;;;;;;;5025692;28;20426;-57
2022/03/06 06:17:42;;;;;;;4.22;2.45;;;;;;;;;;5026036;28;20036;-57
2022/03/06 06:20:08;;;;;;;7.03;2.80;;;;;;;;;;5023574;28;20031;-55
2022/03/06 06:22:34;;;;;;;4.07;2.60;;;;;;;;;;5021558;28;20014;-55
2022/03/06 06:25:00;;;;;;;4.53;2.55;;;;;;;;;;5027188;28;20500;-57
2022/03/06 06:27:27;;;;;;;3.50;2.30;;;;;;;;;;5023840;28;20094;-59
2022/03/06 06:29:53;;;;;;;4.22;2.58;;;;;;;;;;5027924;28;20032;-58
2022/03/06 06:32:18;;;;;;;4.00;2.70;;;;;;;;;;5026324;28;20037;-57
2022/03/06 06:34:45;;;;;;;4.68;2.45;;;;;;;;;;5026240;28;20100;-58
2022/03/06 06:37:10;;;;;;;4.50;2.30;;;;;;;;;;5029009;28;20045;-57
2022/03/06 06:39:36;;;;;;;3.70;2.53;;;;;;;;;;5027081;28;20088;-56
2022/03/06 06:42:03;;;;;;;6.55;2.78;;;;;;;;;;5026340;28;20381;-57
2022/03/06 06:44:29;;;;;;;3.67;2.42;;;;;;;;;;5027655;28;20024;-58
2022/03/06 06:46:54;;;;;;;4.35;2.40;;;;;;;;;;5024281;28;20029;-57
2022/03/06 06:49:19;;;;;;;5.18;2.70;;;;;;;;;;5028090;28;20294;-60
2022/03/06 06:51:45;;;;;;;3.90;2.47;;;;;;;;;;5022410;28;20123;-56
2022/03/06 06:54:16;;;;;;;3.65;2.45;;;;;;;;;;5026579;28;20036;-54
2022/03/06 06:56:42;;;;;;;3.83;2.63;;;;;;;;;;5024914;28;20033;-55
2022/03/06 06:59:08;;;;;;;4.18;2.78;;;;;;;;;;5025622;28;20111;-53
2022/03/06 07:01:33;;;;;;;5.55;2.78;;;;;;;;;;5027798;28;20045;-57
2022/03/06 07:03:59;;;;;;;4.93;2.75;;;;;;;;;;5026447;28;20029;-57
2022/03/06 07:06:24;;;;;;;6.50;2.60;;;;;;;;;;5027348;28;20454;-58
2022/03/06 07:08:50;;;;;;;3.67;2.80;;;;;;;;;;5026597;28;20025;-59
2022/03/06 07:11:15;;;;;;;6.30;2.83;;;;;;;;;;5027714;28;20139;-51
2022/03/06 07:13:40;;;;;;;4.82;2.72;;;;;;;;;;5027536;28;20014;-58
2022/03/06 07:16:06;;;;;;;4.15;2.88;;;;;;;;;;5026334;28;20017;-59
2022/03/06 07:18:31;;;;;;;5.57;2.95;;;;;;;;;;5025942;28;20022;-56
2022/03/06 07:20:57;;;;;;;4.13;2.97;;;;;;;;;;5025316;28;20037;-56
2022/03/06 07:23:22;;;;;;;4.00;2.90;;;;;;;;;;5022641;28;20098;-58
2022/03/06 07:25:47;;;;;;;5.93;2.88;;;;;;;;;;5026044;28;20029;-53
2022/03/06 07:28:13;;;;;;;4.47;3.10;;;;;;;;;;5025222;28;20100;-58
2022/03/06 07:30:44;;;;;;;4.47;2.75;;;;;;;;;;5026632;28;20311;-52
2022/03/06 07:33:10;;;;;;;5.55;3.00;;;;;;;;;;5025374;28;20084;-53
2022/03/06 07:35:35;;;;;;;5.28;3.08;;;;;;;;;;5027374;28;20060;-55
2022/03/06 07:38:01;;;;;;;5.60;3.08;;;;;;;;;;5027222;28;20037;-52
2022/03/06 07:40:26;;;;;;;5.97;2.90;;;;;;;;;;5027367;28;20579;-59
2022/03/06 07:42:52;;;;;;;6.88;3.30;;;;;;;;;;5026680;28;20017;-53
2022/03/06 07:45:18;;;;;;;4.53;2.97;;;;;;;;;;5027928;28;20115;-57
2022/03/06 07:47:44;;;;;;;5.53;3.03;;;;;;;;;;5026621;28;20034;-57
2022/03/06 07:50:11;;;;;;;5.38;3.05;;;;;;;;;;5026509;28;20017;-58
2022/03/06 07:52:37;;;;;;;3.65;2.90;;;;;;;;;;5027583;28;20417;-57
2022/03/06 07:55:05;;;;;;;4.82;3.40;;;;;;;;;;5026461;28;20017;-58
2022/03/06 07:57:30;;;;;;;4.63;3.10;;;;;;;;;;5029034;28;20033;-58
2022/03/06 07:59:55;;;;;;;4.75;3.15;;;;;;;;;;5027421;28;20696;-58
2022/03/06 08:02:21;;;;;;;5.47;3.30;;;;;;;;;;5029276;28;20021;-58
2022/03/06 08:04:47;;;;;;;4.93;3.30;;;;;;;;;;5023220;28;20055;-59
2022/03/06 08:07:12;;;;;;;5.70;3.50;;;;;;;;;;5027002;28;20562;-53
2022/03/06 08:09:37;;;;;;;3.78;2.75;;;;;;;;;;5025634;28;20044;-56
2022/03/06 08:12:03;;;;;;;5.85;3.30;;;;;;;;;;5031752;28;20029;-56
2022/03/06 08:14:29;;;;;;;8.70;3.50;;;;;;;;;;5029921;28;20034;-53
2022/03/06 08:16:54;;;;;;;4.30;2.97;;;;;;;;;;5032339;28;20048;-52
2022/03/06 08:19:20;;;;;;;4.85;3.15;;;;;;;;;;5030472;28;20104;-52
2022/03/06 08:21:45;;;;;;;5.18;3.25;;;;;;;;;;5029449;28;20389;-57
2022/03/06 08:24:11;;;;;;;6.32;3.38;;;;;;;;;;5028657;28;20560;-55
2022/03/06 08:26:36;;;;;;;4.50;3.42;;;;;;;;;;5026860;28;20074;-54
2022/03/06 08:29:02;;;;;;;4.70;3.20;;;;;;;;;;5027891;28;20087;-57
2022/03/06 08:31:27;;;;;;;5.68;3.10;;;;;;;;;;5030912;28;20021;-57
2022/03/06 08:33:53;;;;;;;6.30;3.38;;;;;;;;;;5028700;28;20025;-56
2022/03/06 08:36:19;;;;;;;5.97;3.63;;;;;;;;;;5028615;28;20434;-54
2022/03/06 08:38:45;;;;;;;5.38;3.15;;;;;;;;;;5029524;28;20021;-59
2022/03/06 08:41:10;;;;;;;5.63;3.22;;;;;;;;;;5029647;28;20028;-58
2022/03/06 08:43:35;;;;;;;4.18;3.13;;;;;;;;;;5028913;28;20059;-56
2022/03/06 08:46:03;;;;;;;5.13;3.45;;;;;;;;;;5029914;28;20017;-57
2022/03/06 08:48:29;;;;;;;5.95;3.10;;;;;;;;;;5028180;28;20489;-61
2022/03/06 08:50:54;;;;;;;4.38;2.90;;;;;;;;;;5030030;28;20028;-54
2022/03/06 08:53:19;;;;;;;4.68;3.30;;;;;;;;;;5028872;28;20025;-55
2022/03/06 08:55:45;;;;;;;6.03;3.83;;;;;;;;;;5031456;28;20056;-55
2022/03/06 08:58:10;;;;;;;5.55;3.60;;;;;;;;;;5027750;28;20029;-56
2022/03/06 09:00:36;;;;;;;6.07;3.70;;;;;;;;;;5028947;28;20057;-57
2022/03/06 09:03:01;;;;;;;6.70;3.55;;;;;;;;;;5025497;28;20025;-55
2022/03/06 09:05:26;;;;;;;8.20;3.78;;;;;;;;;;5028462;28;20017;-55
2022/03/06 09:07:52;;;;;;;6.05;3.40;;;;;;;;;;5028491;28;20104;-55
2022/03/06 09:10:17;;;;;;;5.93;3.30;;;;;;;;;;5029152;28;20147;-57
2022/03/06 09:12:43;;;;;;;5.63;3.40;;;;;;;;;;5028566;28;20041;-59
2022/03/06 09:15:09;;;;;;;5.85;3.42;;;;;;;;;;5029550;28;20040;-56
2022/03/06 09:17:35;;;;;;;5.70;2.88;;;;;;;;;;5029791;28;20026;-57
2022/03/06 09:20:02;;;;;;;4.50;3.20;;;;;;;;;;5029602;28;20075;-56
2022/03/06 09:22:27;;;;;;;5.00;3.10;;;;;;;;;;5028336;28;20065;-57
2022/03/06 09:24:53;;;;;;;5.65;3.45;;;;;;;;;;5029813;28;20049;-55
2022/03/06 09:27:18;;;;;;;5.57;3.53;;;;;;;;;;5026375;28;20092;-53
2022/03/06 09:29:44;;;;;;;6.18;3.42;;;;;;;;;;5030290;28;20041;-57
2022/03/06 09:32:09;;;;;;;4.68;3.03;;;;;;;;;;5022292;28;20025;-56
2022/03/06 09:34:34;;;;;;;4.80;3.35;;;;;;;;;;5027542;28;20021;-58
2022/03/06 09:37:00;;;;;;;4.90;2.97;;;;;;;;;;5028176;28;20044;-59
2022/03/06 09:39:25;;;;;;;11.90;3.55;;;;;;;;;;5027851;28;20484;-51
2022/03/06 09:41:54;;;;;;;4.68;3.05;;;;;;;;;;5029329;28;20024;-59
2022/03/06 09:44:23;;;;;;;4.55;3.35;;;;;;;;;;5029385;28;20037;-59
2022/03/06 09:46:52;;;;;;;5.53;3.45;;;;;;;;;;5029346;28;20384;-59
2022/03/06 09:49:17;;;;;;;5.30;3.40;;;;;;;;;;5028640;28;20526;-56
2022/03/06 09:51:43;;;;;;;5.07;3.60;;;;;;;;;;5030032;28;20049;-55
2022/03/06 09:54:11;;;;;;;8.85;3.33;;;;;;;;;;5031193;28;20013;-56
2022/03/06 09:56:36;;;;;;;5.32;3.40;;;;;;;;;;5027991;28;20042;-57
2022/03/06 09:59:02;;;;;;;5.88;3.47;;;;;;;;;;5026800;28;20492;-53
2022/03/06 10:01:28;;;;;;;4.95;3.58;;;;;;;;;;5028058;28;20021;-59
2022/03/06 10:03:53;;;;;;;6.95;4.07;;;;;;;;;;5023836;28;20036;-54
2022/03/06 10:06:19;;;;;;;8.40;3.53;;;;;;;;;;5029025;28;20032;-54
2022/03/06 10:08:44;;;;;;;6.50;3.80;;;;;;;;;;5025068;28;20021;-55
2022/03/06 10:11:12;;;;;;;6.10;3.72;;;;;;;;;;5030204;28;20083;-57
2022/03/06 10:13:38;;;;;;;5.88;4.00;;;;;;;;;;5024101;28;20496;-58
2022/03/06 10:16:12;;;;;;;8.25;3.88;;;;;;;;;;5028691;28;20496;-57
2022/03/06 10:18:41;;;;;;;5.22;3.28;;;;;;;;;;5026770;28;20021;-58
2022/03/06 10:21:12;;;;;;;5.57;3.72;;;;;;;;;;5028334;28;20021;-57
2022/03/06 10:23:38;;;;;;;5.75;3.83;;;;;;;;;;5026919;28;20017;-54
2022/03/06 10:26:07;;;;;;;6.50;4.30;;;;;;;;;;5028542;28;20492;-58
2022/03/06 10:29:00;;;;;;;5.85;3.63;;;;;;;;;;5025121;28;20481;-57
2022/03/06 10:31:29;;;;;;;5.50;3.63;;;;;;;;;;5024061;28;20370;-55
2022/03/06 10:33:59;;;;;;;6.15;3.67;;;;;;;;;;5028051;28;20040;-55
2022/03/06 10:36:39;;;;;;;5.70;3.67;;;;;;;;;;5024958;28;20191;-56
2022/03/06 10:39:11;;;;;;;5.22;3.50;;;;;;;;;;5027206;28;20123;-55
2022/03/06 10:41:39;;;;;;;5.82;3.72;;;;;;;;;;5024157;28;20458;-57
2022/03/06 10:44:08;;;;;;;6.95;3.90;;;;;;;;;;5027963;28;20032;-55
2022/03/06 10:46:34;;;;;;;5.60;3.90;;;;;;;;;;5025938;28;20032;-58
2022/03/06 10:49:14;;;;;;;5.80;3.85;;;;;;;;;;5027135;28;20033;-55
2022/03/06 10:51:51;;;;;;;5.00;3.60;;;;;;;;;;5026691;28;20052;-54
2022/03/06 10:54:18;;;;;;;6.75;4.22;;;;;;;;;;5026914;28;20030;-58
2022/03/06 10:56:47;;;;;;;6.97;3.88;;;;;;;;;;5026047;28;20032;-57
2022/03/06 10:59:17;;;;;;;3.72;3.15;;;;;;;;;;5028659;28;20093;-55
2022/03/06 11:01:43;;;;;;;5.70;3.53;;;;;;;;;;5025064;28;20624;-57
2022/03/06 11:04:09;;;;;;;5.85;4.00;;;;;;;;;;5025554;28;20469;-56
2022/03/06 11:06:40;;;;;;;5.50;4.10;;;;;;;;;;5025123;28;20465;-56
2022/03/06 11:09:10;;;;;;;5.30;3.55;;;;;;;;;;5025877;28;20557;-56
2022/03/06 11:11:35;;;;;;;6.50;3.80;;;;;;;;;;5025015;28;20095;-58
2022/03/06 11:14:01;;;;;;;5.32;3.75;;;;;;;;;;5023402;28;20033;-55
2022/03/06 11:16:27;;;;;;;5.75;3.72;;;;;;;;;;5027464;28;20035;-60
2022/03/06 11:18:53;;;;;;;6.50;3.95;;;;;;;;;;5027175;28;20427;-54
2022/03/06 11:21:19;;;;;;;6.72;4.10;;;;;;;;;;5027487;28;20029;-54
2022/03/06 11:23:47;;;;;;;6.13;3.58;;;;;;;;;;5026802;28;20040;-57
2022/03/06 11:26:12;;;;;;;6.97;3.70;;;;;;;;;;5024394;28;20032;-57
2022/03/06 11:28:43;;;;;;;5.78;3.45;;;;;;;;;;5027189;28;20408;-58
2022/03/06 11:31:09;;;;;;;6.18;3.90;;;;;;;;;;5026699;28;20053;-55
2022/03/06 11:33:40;;;;;;;5.85;3.88;;;;;;;;;;5025008;28;20022;-58
2022/03/06 11:36:21;;;;;;;5.38;3.55;;;;;;;;;;5025914;28;20067;-58
2022/03/06 11:38:48;;;;;;;5.25;3.78;;;;;;;;;;5023751;28;20125;-58
2022/03/06 11:41:14;;;;;;;7.72;3.75;;;;;;;;;;5025079;28;20026;-53
2022/03/06 11:43:46;;;;;;;5.55;3.78;;;;;;;;;;5026067;28;20017;-58
2022/03/06 11:46:25;;;;;;;6.63;3.80;;;;;;;;;;5029610;28;20152;-57
2022/03/06 11:48:50;;;;;;;5.03;3.67;;;;;;;;;;5031137;28;20127;-56
2022/03/06 11:51:17;;;;;;;7.22;3.95;;;;;;;;;;5029794;28;20393;-56
2022/03/06 11:53:48;;;;;;;5.43;3.78;;;;;;;;;;5030951;28;20021;-58
2022/03/06 11:59:19;;;;;;;6.65;3.78;;;;;;;;;;5028732;28;20034;-58
2022/03/06 12:01:50;;;;;;;3.65;3.10;;;;;;;;;;5029298;28;20025;-58
2022/03/06 12:04:18;;;;;;;6.93;3.15;;;;;;;;;;5029237;28;20060;-58
2022/03/06 12:06:46;;;;;;;5.00;3.40;;;;;;;;;;5027722;28;20036;-57
2022/03/06 12:09:16;;;;;;;6.45;3.40;;;;;;;;;;5028649;28;20085;-47
2022/03/06 12:11:42;;;;;;;4.53;3.70;;;;;;;;;;5027503;28;20083;-55
2022/03/06 12:14:16;;;;;;;6.22;3.78;;;;;;;;;;5028700;28;20436;-58
2022/03/06 12:17:00;;;;;;;6.45;4.05;;;;;;;;;;5030276;28;20420;-57
2022/03/06 12:19:29;;;;;;;5.50;3.55;;;;;;;;;;5028976;28;20472;-59
2022/03/06 12:22:20;;;;;;;6.82;4.00;;;;;;;;;;5030599;28;20080;-56
2022/03/06 12:24:48;;;;;;;7.45;3.97;;;;;;;;;;5029342;28;20116;-57
2022/03/06 12:27:14;;;;;;;4.43;3.67;;;;;;;;;;5031038;28;20373;-58
2022/03/06 12:29:46;;;;;;;5.72;3.97;;;;;;;;;;5029670;28;20033;-56
2022/03/06 12:32:27;;;;;;;4.93;3.47;;;;;;;;;;5029087;28;20385;-58
2022/03/06 12:35:06;;;;;;;5.32;3.40;;;;;;;;;;5028115;28;20021;-58
2022/03/06 12:37:40;;;;;;;5.78;3.72;;;;;;;;;;5028627;28;20029;-56
2022/03/06 12:40:12;;;;;;;5.15;3.60;;;;;;;;;;5026161;28;20017;-58
2022/03/06 12:42:38;;;;;;;7.63;3.60;;;;;;;;;;5029357;28;20029;-58
2022/03/06 12:45:09;;;;;;;8.00;3.97;;;;;;;;;;5028507;28;20029;-55
2022/03/06 12:47:36;;;;;;;5.15;3.45;;;;;;;;;;5023928;28;20029;-57
2022/03/06 12:50:03;;;;;;;5.30;3.97;;;;;;;;;;5029217;28;20028;-57
2022/03/06 12:52:28;;;;;;;6.57;3.85;;;;;;;;;;5029348;28;20413;-58
2022/03/06 12:54:56;;;;;;;6.38;3.97;;;;;;;;;;5028530;28;20018;-55
2022/03/06 12:57:27;;;;;;;8.95;4.10;;;;;;;;;;5027031;28;20473;-57
2022/03/06 12:59:52;;;;;;;7.38;3.78;;;;;;;;;;5027264;28;20040;-57
2022/03/06 13:02:19;;;;;;;5.90;3.70;;;;;;;;;;5028651;28;20408;-58
2022/03/06 13:04:49;;;;;;;7.45;4.45;;;;;;;;;;5028851;28;20022;-57
2022/03/06 13:07:15;;;;;;;5.53;3.80;;;;;;;;;;5026909;28;20048;-55
2022/03/06 13:09:40;;;;;;;6.82;4.20;;;;;;;;;;5022493;28;20493;-58
2022/03/06 13:12:06;;;;;;;6.30;4.22;;;;;;;;;;5026066;28;20037;-56
2022/03/06 13:14:38;;;;;;;4.85;3.88;;;;;;;;;;5026780;28;20025;-54
2022/03/06 13:17:08;;;;;;;5.72;3.72;;;;;;;;;;5026847;28;20033;-52
2022/03/06 13:19:48;;;;;;;5.97;3.78;;;;;;;;;;5026688;28;20436;-57
2022/03/06 13:22:19;;;;;;;5.15;3.53;;;;;;;;;;5026696;28;20030;-57
2022/03/06 13:24:47;;;;;;;5.35;3.65;;;;;;;;;;5025273;28;20025;-57
2022/03/06 13:27:19;;;;;;;5.18;3.30;;;;;;;;;;5026957;28;20033;-50
2022/03/06 13:30:01;;;;;;;4.25;3.28;;;;;;;;;;5025300;28;20034;-57
2022/03/06 13:32:29;;;;;;;5.57;3.50;;;;;;;;;;5027234;28;20032;-57
2022/03/06 13:34:54;;;;;;;6.72;3.70;;;;;;;;;;5025543;28;20112;-56
2022/03/06 13:37:36;;;;;;;5.70;3.22;;;;;;;;;;5026209;28;20109;-55
2022/03/06 13:40:13;;;;;;;4.82;3.58;;;;;;;;;;5023941;28;20037;-53
2022/03/06 13:42:39;;;;;;;5.65;3.55;;;;;;;;;;5026534;28;20060;-59
2022/03/06 13:45:10;;;;;;;5.18;4.03;;;;;;;;;;5024141;28;20037;-57
2022/03/06 13:47:41;;;;;;;5.93;3.60;;;;;;;;;;5025859;28;20052;-58
2022/03/06 13:50:07;;;;;;;6.05;3.50;;;;;;;;;;5023167;28;20029;-58
2022/03/06 13:52:35;;;;;;;6.05;3.58;;;;;;;;;;5026806;28;20381;-58
2022/03/06 13:55:09;;;;;;;4.80;3.85;;;;;;;;;;5026666;28;20025;-59
2022/03/06 13:57:35;;;;;;;4.97;3.60;;;;;;;;;;5025514;28;20025;-59
2022/03/06 14:00:26;;;;;;;5.38;3.45;;;;;;;;;;5028004;28;20025;-57
2022/03/06 14:03:03;;;;;;;5.75;4.07;;;;;;;;;;5025140;28;20130;-58
2022/03/06 14:05:31;;;;;;;7.35;4.20;;;;;;;;;;5025330;28;20389;-59
2022/03/06 14:08:13;;;;;;;6.20;3.88;;;;;;;;;;5025274;28;20067;-59
2022/03/06 14:10:41;;;;;;;6.25;4.38;;;;;;;;;;5025352;28;20104;-59
2022/03/06 14:13:23;;;;;;;5.45;4.05;;;;;;;;;;5023386;28;20455;-56
2022/03/06 14:15:49;;;;;;;11.52;4.28;;;;;;;;;;5025964;28;20128;-59
2022/03/06 14:18:34;;;;;;;6.32;4.00;;;;;;;;;;5023619;28;20064;-58
2022/03/06 14:21:06;;;;;;;5.95;4.28;;;;;;;;;;5025674;28;20543;-59
2022/03/06 14:23:31;;;;;;;7.15;4.15;;;;;;;;;;5025275;28;20490;-55
2022/03/06 14:25:57;;;;;;;5.65;3.90;;;;;;;;;;5026732;28;20056;-54
2022/03/06 14:28:22;;;;;;;7.40;4.32;;;;;;;;;;5025988;28;20029;-58
2022/03/06 14:30:48;;;;;;;4.93;3.75;;;;;;;;;;5025067;28;20115;-58
2022/03/06 14:33:13;;;;;;;7.45;4.47;;;;;;;;;;5056212;28;20037;-54
2022/03/06 14:35:40;;;;;;;5.53;3.80;;;;;;;;;;5025760;28;20031;-57
2022/03/06 14:38:05;;;;;;;7.25;3.60;;;;;;;;;;5023788;28;20440;-55
2022/03/06 14:40:32;;;;;;;6.22;3.80;;;;;;;;;;5025976;28;20076;-58
2022/03/06 14:42:59;;;;;;;4.68;3.53;;;;;;;;;;5024722;28;20025;-58
2022/03/06 14:45:25;;;;;;;6.40;4.18;;;;;;;;;;5024457;28;20172;-55
2022/03/06 14:47:51;;;;;;;8.32;4.88;;;;;;;;;;5022898;28;20033;-57